sensor_id;sensor_type;location;lat;lon;timestamp;P1;durP1;ratioP1;P2;durP2;ratioP2
42840;SDS011;28491;46.898;7.660;2022-07-17T00:00:35;8.23;;;3.80;;
42840;SDS011;28491;46.898;7.660;2022-07-17T00:03:01;5.65;;;3.72;;
42840;SDS011;28491;46.898;7.660;2022-07-17T00:05:27;5.40;;;3.25;;
42840;SDS011;28491;46.898;7.660;2022-07-17T00:07:53;8.15;;;2.95;;
42840;SDS011;28491;46.898;7.660;2022-07-17T00:10:18;5.40;;;3.35;;
42840;SDS011;28491;46.898;7.660;2022-07-17T00:12:44;4.32;;;2.88;;
42840;SDS011;28491;46.898;7.660;2022-07-17T00:15:10;4.38;;;3.83;;
42840;SDS011;28491;46.898;7.660;2022-07-17T00:17:36;5.85;;;3.40;;
42840;SDS011;28491;46.898;7.660;2022-07-17T00:20:02;4.90;;;2.92;;
42840;SDS011;28491;46.898;7.660;2022-07-17T00:22:28;5.22;;;3.38;;
42840;SDS011;28491;46.898;7.660;2022-07-17T00:24:54;7.25;;;3.35;;
42840;SDS011;28491;46.898;7.660;2022-07-17T00:27:19;4.78;;;3.30;;
42840;SDS011;28491;46.898;7.660;2022-07-17T00:29:45;6.57;;;3.17;;
42840;SDS011;28491;46.898;7.660;2022-07-17T00:32:10;4.18;;;3.05;;
42840;SDS011;28491;46.898;7.660;2022-07-17T00:34:36;6.82;;;3.42;;
42840;SDS011;28491;46.898;7.660;2022-07-17T00:37:01;5.38;;;3.28;;
42840;SDS011;28491;46.898;7.660;2022-07-17T00:39:27;4.13;;;2.72;;
42840;SDS011;28491;46.898;7.660;2022-07-17T00:41:53;3.70;;;3.03;;
42840;SDS011;28491;46.898;7.660;2022-07-17T00:44:19;7.43;;;3.60;;
42840;SDS011;28491;46.898;7.660;2022-07-17T00:46:44;3.75;;;3.10;;
42840;SDS011;28491;46.898;7.660;2022-07-17T00:49:10;7.97;;;3.38;;
42840;SDS011;28491;46.898;7.660;2022-07-17T00:51:35;4.93;;;3.05;;
42840;SDS011;28491;46.898;7.660;2022-07-17T00:54:01;5.32;;;3.47;;
42840;SDS011;28491;46.898;7.660;2022-07-17T00:56:28;4.95;;;2.70;;
42840;SDS011;28491;46.898;7.660;2022-07-17T00:58:54;5.15;;;3.50;;
42840;SDS011;28491;46.898;7.660;2022-07-17T01:01:20;4.28;;;2.90;;
42840;SDS011;28491;46.898;7.660;2022-07-17T01:03:45;5.93;;;2.63;;
42840;SDS011;28491;46.898;7.660;2022-07-17T01:06:11;4.82;;;2.75;;
42840;SDS011;28491;46.898;7.660;2022-07-17T01:08:37;7.32;;;3.35;;
42840;SDS011;28491;46.898;7.660;2022-07-17T01:11:03;8.63;;;3.53;;
42840;SDS011;28491;46.898;7.660;2022-07-17T01:13:30;5.18;;;2.88;;
42840;SDS011;28491;46.898;7.660;2022-07-17T01:15:56;4.63;;;3.10;;
42840;SDS011;28491;46.898;7.660;2022-07-17T01:18:22;5.60;;;3.40;;
42840;SDS011;28491;46.898;7.660;2022-07-17T01:20:48;4.90;;;2.97;;
42840;SDS011;28491;46.898;7.660;2022-07-17T01:23:15;5.72;;;3.35;;
42840;SDS011;28491;46.898;7.660;2022-07-17T01:25:42;4.20;;;3.03;;
42840;SDS011;28491;46.898;7.660;2022-07-17T01:28:08;9.00;;;3.50;;
42840;SDS011;28491;46.898;7.660;2022-07-17T01:30:34;6.80;;;2.95;;
42840;SDS011;28491;46.898;7.660;2022-07-17T01:33:00;4.03;;;3.03;;
42840;SDS011;28491;46.898;7.660;2022-07-17T01:35:26;4.45;;;2.92;;
42840;SDS011;28491;46.898;7.660;2022-07-17T01:37:52;5.35;;;3.28;;
42840;SDS011;28491;46.898;7.660;2022-07-17T01:40:18;6.18;;;3.08;;
42840;SDS011;28491;46.898;7.660;2022-07-17T01:42:45;4.13;;;2.95;;
42840;SDS011;28491;46.898;7.660;2022-07-17T01:45:12;5.55;;;3.63;;
42840;SDS011;28491;46.898;7.660;2022-07-17T01:47:38;5.97;;;3.78;;
42840;SDS011;28491;46.898;7.660;2022-07-17T01:50:04;5.55;;;3.10;;
42840;SDS011;28491;46.898;7.660;2022-07-17T01:52:30;4.45;;;3.15;;
42840;SDS011;28491;46.898;7.660;2022-07-17T01:54:59;4.50;;;3.65;;
42840;SDS011;28491;46.898;7.660;2022-07-17T01:57:24;8.82;;;4.25;;
42840;SDS011;28491;46.898;7.660;2022-07-17T01:59:50;4.88;;;3.35;;
42840;SDS011;28491;46.898;7.660;2022-07-17T02:02:16;4.90;;;3.30;;
42840;SDS011;28491;46.898;7.660;2022-07-17T02:04:41;4.80;;;3.10;;
42840;SDS011;28491;46.898;7.660;2022-07-17T02:07:07;6.63;;;3.13;;
42840;SDS011;28491;46.898;7.660;2022-07-17T02:09:34;4.40;;;3.47;;
42840;SDS011;28491;46.898;7.660;2022-07-17T02:11:59;4.50;;;3.33;;
42840;SDS011;28491;46.898;7.660;2022-07-17T02:14:25;8.02;;;3.30;;
42840;SDS011;28491;46.898;7.660;2022-07-17T02:16:51;5.53;;;3.53;;
42840;SDS011;28491;46.898;7.660;2022-07-17T02:19:17;5.85;;;3.63;;
42840;SDS011;28491;46.898;7.660;2022-07-17T02:21:43;7.72;;;3.22;;
42840;SDS011;28491;46.898;7.660;2022-07-17T02:24:09;4.45;;;2.95;;
42840;SDS011;28491;46.898;7.660;2022-07-17T02:26:34;7.75;;;3.08;;
42840;SDS011;28491;46.898;7.660;2022-07-17T02:29:00;4.53;;;3.22;;
42840;SDS011;28491;46.898;7.660;2022-07-17T02:31:26;3.78;;;3.10;;
42840;SDS011;28491;46.898;7.660;2022-07-17T02:33:51;4.80;;;3.05;;
42840;SDS011;28491;46.898;7.660;2022-07-17T02:36:17;5.03;;;3.70;;
42840;SDS011;28491;46.898;7.660;2022-07-17T02:38:42;4.70;;;2.95;;
42840;SDS011;28491;46.898;7.660;2022-07-17T02:41:08;5.82;;;3.05;;
42840;SDS011;28491;46.898;7.660;2022-07-17T02:43:33;4.40;;;3.13;;
42840;SDS011;28491;46.898;7.660;2022-07-17T02:46:00;5.00;;;3.00;;
42840;SDS011;28491;46.898;7.660;2022-07-17T02:48:26;6.32;;;3.33;;
42840;SDS011;28491;46.898;7.660;2022-07-17T02:50:52;3.35;;;2.95;;
42840;SDS011;28491;46.898;7.660;2022-07-17T02:53:17;4.90;;;3.08;;
42840;SDS011;28491;46.898;7.660;2022-07-17T02:55:43;5.47;;;3.55;;
42840;SDS011;28491;46.898;7.660;2022-07-17T02:58:08;7.25;;;3.65;;
42840;SDS011;28491;46.898;7.660;2022-07-17T03:00:34;4.50;;;3.20;;
42840;SDS011;28491;46.898;7.660;2022-07-17T03:02:59;5.95;;;3.42;;
42840;SDS011;28491;46.898;7.660;2022-07-17T03:05:25;5.68;;;3.72;;
42840;SDS011;28491;46.898;7.660;2022-07-17T03:07:51;5.40;;;3.00;;
42840;SDS011;28491;46.898;7.660;2022-07-17T03:10:16;5.88;;;3.33;;
42840;SDS011;28491;46.898;7.660;2022-07-17T03:12:42;4.22;;;2.95;;
42840;SDS011;28491;46.898;7.660;2022-07-17T03:15:08;8.57;;;3.55;;
42840;SDS011;28491;46.898;7.660;2022-07-17T03:17:34;4.10;;;3.45;;
42840;SDS011;28491;46.898;7.660;2022-07-17T03:20:02;6.28;;;4.35;;
42840;SDS011;28491;46.898;7.660;2022-07-17T03:22:28;5.10;;;3.72;;
42840;SDS011;28491;46.898;7.660;2022-07-17T03:24:53;5.50;;;3.50;;
42840;SDS011;28491;46.898;7.660;2022-07-17T03:27:19;8.80;;;3.53;;
42840;SDS011;28491;46.898;7.660;2022-07-17T03:29:45;5.70;;;3.90;;
42840;SDS011;28491;46.898;7.660;2022-07-17T03:32:10;9.10;;;3.38;;
42840;SDS011;28491;46.898;7.660;2022-07-17T03:34:36;4.05;;;3.10;;
42840;SDS011;28491;46.898;7.660;2022-07-17T03:37:02;4.25;;;3.15;;
42840;SDS011;28491;46.898;7.660;2022-07-17T03:39:28;6.07;;;3.55;;
42840;SDS011;28491;46.898;7.660;2022-07-17T03:41:54;8.30;;;3.85;;
42840;SDS011;28491;46.898;7.660;2022-07-17T03:44:20;6.05;;;3.28;;
42840;SDS011;28491;46.898;7.660;2022-07-17T03:46:45;4.00;;;3.03;;
42840;SDS011;28491;46.898;7.660;2022-07-17T03:49:11;6.22;;;2.95;;
42840;SDS011;28491;46.898;7.660;2022-07-17T03:51:36;6.20;;;3.15;;
42840;SDS011;28491;46.898;7.660;2022-07-17T03:54:02;3.78;;;2.78;;
42840;SDS011;28491;46.898;7.660;2022-07-17T03:56:27;4.25;;;3.10;;
42840;SDS011;28491;46.898;7.660;2022-07-17T03:58:53;5.55;;;3.30;;
42840;SDS011;28491;46.898;7.660;2022-07-17T04:01:19;5.18;;;3.05;;
42840;SDS011;28491;46.898;7.660;2022-07-17T04:03:44;11.65;;;3.42;;
42840;SDS011;28491;46.898;7.660;2022-07-17T04:06:10;5.72;;;3.60;;
42840;SDS011;28491;46.898;7.660;2022-07-17T04:08:35;4.97;;;3.17;;
42840;SDS011;28491;46.898;7.660;2022-07-17T04:11:01;4.65;;;3.20;;
42840;SDS011;28491;46.898;7.660;2022-07-17T04:13:27;6.28;;;3.50;;
42840;SDS011;28491;46.898;7.660;2022-07-17T04:15:52;6.50;;;4.10;;
42840;SDS011;28491;46.898;7.660;2022-07-17T04:18:22;5.88;;;3.60;;
42840;SDS011;28491;46.898;7.660;2022-07-17T04:20:49;6.10;;;3.33;;
42840;SDS011;28491;46.898;7.660;2022-07-17T04:23:15;6.20;;;3.22;;
42840;SDS011;28491;46.898;7.660;2022-07-17T04:25:41;6.07;;;3.67;;
42840;SDS011;28491;46.898;7.660;2022-07-17T04:28:08;7.55;;;3.67;;
42840;SDS011;28491;46.898;7.660;2022-07-17T04:30:34;7.32;;;3.83;;
42840;SDS011;28491;46.898;7.660;2022-07-17T04:32:59;6.63;;;3.92;;
42840;SDS011;28491;46.898;7.660;2022-07-17T04:35:25;4.72;;;3.30;;
42840;SDS011;28491;46.898;7.660;2022-07-17T04:37:51;5.93;;;3.70;;
42840;SDS011;28491;46.898;7.660;2022-07-17T04:40:17;6.88;;;3.95;;
42840;SDS011;28491;46.898;7.660;2022-07-17T04:42:42;6.82;;;3.60;;
42840;SDS011;28491;46.898;7.660;2022-07-17T04:45:08;9.00;;;3.40;;
42840;SDS011;28491;46.898;7.660;2022-07-17T04:47:34;10.15;;;3.65;;
42840;SDS011;28491;46.898;7.660;2022-07-17T04:50:00;6.00;;;4.00;;
42840;SDS011;28491;46.898;7.660;2022-07-17T04:52:26;6.93;;;4.40;;
42840;SDS011;28491;46.898;7.660;2022-07-17T04:54:52;5.90;;;3.70;;
42840;SDS011;28491;46.898;7.660;2022-07-17T04:57:17;6.20;;;3.40;;
42840;SDS011;28491;46.898;7.660;2022-07-17T04:59:43;9.13;;;4.05;;
42840;SDS011;28491;46.898;7.660;2022-07-17T05:02:08;9.80;;;3.88;;
42840;SDS011;28491;46.898;7.660;2022-07-17T05:04:34;5.72;;;4.43;;
42840;SDS011;28491;46.898;7.660;2022-07-17T05:06:59;9.05;;;4.90;;
42840;SDS011;28491;46.898;7.660;2022-07-17T05:09:25;4.53;;;3.88;;
42840;SDS011;28491;46.898;7.660;2022-07-17T05:11:50;7.93;;;3.97;;
42840;SDS011;28491;46.898;7.660;2022-07-17T05:14:16;7.32;;;4.07;;
42840;SDS011;28491;46.898;7.660;2022-07-17T05:16:42;5.35;;;3.78;;
42840;SDS011;28491;46.898;7.660;2022-07-17T05:19:07;5.78;;;3.38;;
42840;SDS011;28491;46.898;7.660;2022-07-17T05:21:33;4.75;;;3.40;;
42840;SDS011;28491;46.898;7.660;2022-07-17T05:23:59;4.53;;;3.88;;
42840;SDS011;28491;46.898;7.660;2022-07-17T05:26:24;4.47;;;3.55;;
42840;SDS011;28491;46.898;7.660;2022-07-17T05:28:50;4.25;;;3.17;;
42840;SDS011;28491;46.898;7.660;2022-07-17T05:31:16;5.75;;;3.83;;
42840;SDS011;28491;46.898;7.660;2022-07-17T05:33:42;6.30;;;3.78;;
42840;SDS011;28491;46.898;7.660;2022-07-17T05:36:07;7.22;;;3.30;;
42840;SDS011;28491;46.898;7.660;2022-07-17T05:38:33;5.78;;;3.45;;
42840;SDS011;28491;46.898;7.660;2022-07-17T05:40:59;4.32;;;3.50;;
42840;SDS011;28491;46.898;7.660;2022-07-17T05:43:24;4.70;;;3.33;;
42840;SDS011;28491;46.898;7.660;2022-07-17T05:45:52;6.85;;;3.83;;
42840;SDS011;28491;46.898;7.660;2022-07-17T05:48:20;5.35;;;3.35;;
42840;SDS011;28491;46.898;7.660;2022-07-17T05:50:45;5.45;;;3.08;;
42840;SDS011;28491;46.898;7.660;2022-07-17T05:53:11;7.22;;;3.00;;
42840;SDS011;28491;46.898;7.660;2022-07-17T05:55:37;6.63;;;3.63;;
42840;SDS011;28491;46.898;7.660;2022-07-17T05:58:02;4.97;;;3.35;;
42840;SDS011;28491;46.898;7.660;2022-07-17T06:00:28;12.20;;;3.72;;
42840;SDS011;28491;46.898;7.660;2022-07-17T06:02:54;9.60;;;3.15;;
42840;SDS011;28491;46.898;7.660;2022-07-17T06:05:19;3.53;;;2.70;;
42840;SDS011;28491;46.898;7.660;2022-07-17T06:07:45;5.35;;;2.67;;
42840;SDS011;28491;46.898;7.660;2022-07-17T06:10:11;8.48;;;2.67;;
42840;SDS011;28491;46.898;7.660;2022-07-17T06:12:37;8.43;;;2.40;;
42840;SDS011;28491;46.898;7.660;2022-07-17T06:15:02;5.80;;;2.30;;
42840;SDS011;28491;46.898;7.660;2022-07-17T06:17:28;7.60;;;2.92;;
42840;SDS011;28491;46.898;7.660;2022-07-17T06:19:54;5.72;;;3.03;;
42840;SDS011;28491;46.898;7.660;2022-07-17T06:22:19;5.97;;;3.17;;
42840;SDS011;28491;46.898;7.660;2022-07-17T06:24:45;4.65;;;2.78;;
42840;SDS011;28491;46.898;7.660;2022-07-17T06:27:11;7.47;;;3.22;;
42840;SDS011;28491;46.898;7.660;2022-07-17T06:29:37;4.72;;;2.72;;
42840;SDS011;28491;46.898;7.660;2022-07-17T06:32:03;8.27;;;2.08;;
42840;SDS011;28491;46.898;7.660;2022-07-17T06:34:29;7.95;;;1.88;;
42840;SDS011;28491;46.898;7.660;2022-07-17T06:36:54;4.32;;;2.20;;
42840;SDS011;28491;46.898;7.660;2022-07-17T06:39:20;3.42;;;2.28;;
42840;SDS011;28491;46.898;7.660;2022-07-17T06:41:46;8.98;;;2.13;;
42840;SDS011;28491;46.898;7.660;2022-07-17T06:44:11;3.53;;;2.08;;
42840;SDS011;28491;46.898;7.660;2022-07-17T06:46:37;3.55;;;1.90;;
42840;SDS011;28491;46.898;7.660;2022-07-17T06:49:02;5.00;;;2.15;;
42840;SDS011;28491;46.898;7.660;2022-07-17T06:51:28;3.80;;;1.92;;
42840;SDS011;28491;46.898;7.660;2022-07-17T06:53:54;3.92;;;2.35;;
42840;SDS011;28491;46.898;7.660;2022-07-17T06:56:19;3.20;;;2.42;;
42840;SDS011;28491;46.898;7.660;2022-07-17T06:58:45;5.25;;;3.13;;
42840;SDS011;28491;46.898;7.660;2022-07-17T07:01:10;5.07;;;2.55;;
42840;SDS011;28491;46.898;7.660;2022-07-17T07:03:36;4.90;;;2.72;;
42840;SDS011;28491;46.898;7.660;2022-07-17T07:06:01;6.40;;;2.80;;
42840;SDS011;28491;46.898;7.660;2022-07-17T07:08:27;5.78;;;2.70;;
42840;SDS011;28491;46.898;7.660;2022-07-17T07:10:53;5.28;;;3.25;;
42840;SDS011;28491;46.898;7.660;2022-07-17T07:13:18;5.22;;;2.75;;
42840;SDS011;28491;46.898;7.660;2022-07-17T07:15:44;5.43;;;2.97;;
42840;SDS011;28491;46.898;7.660;2022-07-17T07:18:09;4.80;;;2.85;;
42840;SDS011;28491;46.898;7.660;2022-07-17T07:20:35;7.47;;;3.08;;
42840;SDS011;28491;46.898;7.660;2022-07-17T07:23:01;5.80;;;3.10;;
42840;SDS011;28491;46.898;7.660;2022-07-17T07:25:26;6.45;;;3.03;;
42840;SDS011;28491;46.898;7.660;2022-07-17T07:27:52;4.75;;;2.72;;
42840;SDS011;28491;46.898;7.660;2022-07-17T07:30:17;8.40;;;3.05;;
42840;SDS011;28491;46.898;7.660;2022-07-17T07:32:43;3.83;;;2.70;;
42840;SDS011;28491;46.898;7.660;2022-07-17T07:35:08;3.63;;;2.45;;
42840;SDS011;28491;46.898;7.660;2022-07-17T07:37:34;3.58;;;2.45;;
42840;SDS011;28491;46.898;7.660;2022-07-17T07:40:00;7.47;;;2.72;;
42840;SDS011;28491;46.898;7.660;2022-07-17T07:42:27;4.32;;;2.75;;
42840;SDS011;28491;46.898;7.660;2022-07-17T07:44:52;6.65;;;3.03;;
42840;SDS011;28491;46.898;7.660;2022-07-17T07:47:18;4.35;;;2.88;;
42840;SDS011;28491;46.898;7.660;2022-07-17T07:49:43;6.30;;;2.95;;
42840;SDS011;28491;46.898;7.660;2022-07-17T07:52:09;5.00;;;2.72;;
42840;SDS011;28491;46.898;7.660;2022-07-17T07:54:35;5.38;;;2.88;;
42840;SDS011;28491;46.898;7.660;2022-07-17T07:57:01;4.47;;;2.72;;
42840;SDS011;28491;46.898;7.660;2022-07-17T07:59:27;4.40;;;2.88;;
42840;SDS011;28491;46.898;7.660;2022-07-17T08:01:57;6.05;;;2.80;;
42840;SDS011;28491;46.898;7.660;2022-07-17T08:04:23;6.13;;;2.95;;
42840;SDS011;28491;46.898;7.660;2022-07-17T08:06:48;5.13;;;3.08;;
42840;SDS011;28491;46.898;7.660;2022-07-17T08:09:14;4.57;;;2.30;;
42840;SDS011;28491;46.898;7.660;2022-07-17T08:11:39;4.85;;;2.97;;
42840;SDS011;28491;46.898;7.660;2022-07-17T08:14:05;4.95;;;2.97;;
42840;SDS011;28491;46.898;7.660;2022-07-17T08:16:31;5.63;;;2.47;;
42840;SDS011;28491;46.898;7.660;2022-07-17T08:18:56;6.80;;;2.72;;
42840;SDS011;28491;46.898;7.660;2022-07-17T08:21:22;5.53;;;2.97;;
42840;SDS011;28491;46.898;7.660;2022-07-17T08:23:47;4.15;;;2.80;;
42840;SDS011;28491;46.898;7.660;2022-07-17T08:26:13;3.15;;;2.70;;
42840;SDS011;28491;46.898;7.660;2022-07-17T08:28:39;4.72;;;2.40;;
42840;SDS011;28491;46.898;7.660;2022-07-17T08:31:05;6.82;;;2.55;;
42840;SDS011;28491;46.898;7.660;2022-07-17T08:33:31;6.20;;;2.72;;
42840;SDS011;28491;46.898;7.660;2022-07-17T08:35:56;3.90;;;2.63;;
42840;SDS011;28491;46.898;7.660;2022-07-17T08:38:22;8.73;;;2.92;;
42840;SDS011;28491;46.898;7.660;2022-07-17T08:40:47;6.20;;;3.20;;
42840;SDS011;28491;46.898;7.660;2022-07-17T08:43:15;3.40;;;2.40;;
42840;SDS011;28491;46.898;7.660;2022-07-17T08:45:41;5.10;;;2.30;;
42840;SDS011;28491;46.898;7.660;2022-07-17T08:48:12;5.93;;;2.80;;
42840;SDS011;28491;46.898;7.660;2022-07-17T08:50:39;6.72;;;2.88;;
42840;SDS011;28491;46.898;7.660;2022-07-17T08:53:05;6.07;;;2.65;;
42840;SDS011;28491;46.898;7.660;2022-07-17T08:55:30;5.80;;;2.75;;
42840;SDS011;28491;46.898;7.660;2022-07-17T08:57:56;4.05;;;2.35;;
42840;SDS011;28491;46.898;7.660;2022-07-17T09:00:23;5.05;;;2.60;;
42840;SDS011;28491;46.898;7.660;2022-07-17T09:03:03;4.75;;;2.92;;
42840;SDS011;28491;46.898;7.660;2022-07-17T09:05:31;4.13;;;2.17;;
42840;SDS011;28491;46.898;7.660;2022-07-17T09:08:05;5.65;;;2.80;;
42840;SDS011;28491;46.898;7.660;2022-07-17T09:13:21;5.45;;;2.50;;
42840;SDS011;28491;46.898;7.660;2022-07-17T09:15:53;4.72;;;2.75;;
42840;SDS011;28491;46.898;7.660;2022-07-17T09:18:20;3.60;;;2.20;;
42840;SDS011;28491;46.898;7.660;2022-07-17T09:20:50;9.07;;;2.92;;
42840;SDS011;28491;46.898;7.660;2022-07-17T09:23:18;5.88;;;2.80;;
42840;SDS011;28491;46.898;7.660;2022-07-17T09:25:46;4.38;;;2.92;;
42840;SDS011;28491;46.898;7.660;2022-07-17T09:28:13;4.07;;;2.63;;
42840;SDS011;28491;46.898;7.660;2022-07-17T09:30:42;5.05;;;2.97;;
42840;SDS011;28491;46.898;7.660;2022-07-17T09:33:14;5.07;;;2.38;;
42840;SDS011;28491;46.898;7.660;2022-07-17T09:35:54;3.45;;;2.85;;
42840;SDS011;28491;46.898;7.660;2022-07-17T09:38:32;3.67;;;2.53;;
42840;SDS011;28491;46.898;7.660;2022-07-17T09:41:14;5.70;;;2.60;;
42840;SDS011;28491;46.898;7.660;2022-07-17T09:43:48;5.30;;;3.05;;
42840;SDS011;28491;46.898;7.660;2022-07-17T09:46:23;3.60;;;2.50;;
42840;SDS011;28491;46.898;7.660;2022-07-17T09:48:51;5.50;;;3.25;;
42840;SDS011;28491;46.898;7.660;2022-07-17T09:51:20;4.90;;;3.00;;
42840;SDS011;28491;46.898;7.660;2022-07-17T09:53:46;5.40;;;2.70;;
42840;SDS011;28491;46.898;7.660;2022-07-17T09:56:14;4.03;;;2.75;;
42840;SDS011;28491;46.898;7.660;2022-07-17T09:58:43;4.20;;;2.47;;
42840;SDS011;28491;46.898;7.660;2022-07-17T10:01:13;4.90;;;3.00;;
42840;SDS011;28491;46.898;7.660;2022-07-17T10:03:40;13.52;;;3.03;;
42840;SDS011;28491;46.898;7.660;2022-07-17T10:06:06;3.47;;;2.50;;
42840;SDS011;28491;46.898;7.660;2022-07-17T10:08:32;4.10;;;2.60;;
42840;SDS011;28491;46.898;7.660;2022-07-17T10:11:00;5.85;;;2.92;;
42840;SDS011;28491;46.898;7.660;2022-07-17T10:13:26;8.57;;;2.63;;
42840;SDS011;28491;46.898;7.660;2022-07-17T10:15:53;4.15;;;2.53;;
42840;SDS011;28491;46.898;7.660;2022-07-17T10:18:20;5.82;;;2.78;;
42840;SDS011;28491;46.898;7.660;2022-07-17T10:20:46;4.32;;;2.42;;
42840;SDS011;28491;46.898;7.660;2022-07-17T10:23:13;3.70;;;2.33;;
42840;SDS011;28491;46.898;7.660;2022-07-17T10:25:39;4.35;;;2.75;;
42840;SDS011;28491;46.898;7.660;2022-07-17T10:28:04;2.88;;;2.05;;
42840;SDS011;28491;46.898;7.660;2022-07-17T10:30:32;6.13;;;2.20;;
42840;SDS011;28491;46.898;7.660;2022-07-17T10:32:59;3.92;;;2.58;;
42840;SDS011;28491;46.898;7.660;2022-07-17T10:35:40;5.45;;;2.45;;
42840;SDS011;28491;46.898;7.660;2022-07-17T10:38:16;5.55;;;2.15;;
42840;SDS011;28491;46.898;7.660;2022-07-17T10:40:41;21.27;;;3.90;;
42840;SDS011;28491;46.898;7.660;2022-07-17T10:43:08;5.50;;;2.83;;
42840;SDS011;28491;46.898;7.660;2022-07-17T10:45:35;3.90;;;2.33;;
42840;SDS011;28491;46.898;7.660;2022-07-17T10:48:17;4.38;;;2.60;;
42840;SDS011;28491;46.898;7.660;2022-07-17T10:55:49;7.40;;;2.38;;
42840;SDS011;28491;46.898;7.660;2022-07-17T11:03:28;3.83;;;2.10;;
42840;SDS011;28491;46.898;7.660;2022-07-17T11:06:05;4.93;;;2.72;;
42840;SDS011;28491;46.898;7.660;2022-07-17T11:08:34;3.00;;;2.30;;
42840;SDS011;28491;46.898;7.660;2022-07-17T11:11:20;5.28;;;2.40;;
42840;SDS011;28491;46.898;7.660;2022-07-17T11:13:47;8.50;;;2.38;;
42840;SDS011;28491;46.898;7.660;2022-07-17T11:16:23;6.38;;;3.08;;
42840;SDS011;28491;46.898;7.660;2022-07-17T11:18:53;3.85;;;2.10;;
42840;SDS011;28491;46.898;7.660;2022-07-17T11:21:20;3.80;;;2.20;;
42840;SDS011;28491;46.898;7.660;2022-07-17T11:23:50;5.60;;;2.30;;
42840;SDS011;28491;46.898;7.660;2022-07-17T11:26:17;4.53;;;2.10;;
42840;SDS011;28491;46.898;7.660;2022-07-17T11:28:44;4.45;;;2.30;;
42840;SDS011;28491;46.898;7.660;2022-07-17T11:31:16;5.72;;;2.63;;
42840;SDS011;28491;46.898;7.660;2022-07-17T11:33:56;4.70;;;2.78;;
42840;SDS011;28491;46.898;7.660;2022-07-17T11:36:34;4.07;;;2.70;;
42840;SDS011;28491;46.898;7.660;2022-07-17T11:39:08;4.28;;;2.60;;
42840;SDS011;28491;46.898;7.660;2022-07-17T11:41:43;3.23;;;2.20;;
42840;SDS011;28491;46.898;7.660;2022-07-17T11:44:12;6.30;;;2.85;;
42840;SDS011;28491;46.898;7.660;2022-07-17T11:46:40;4.15;;;2.63;;
42840;SDS011;28491;46.898;7.660;2022-07-17T11:49:08;3.65;;;2.25;;
42840;SDS011;28491;46.898;7.660;2022-07-17T11:54:05;6.10;;;2.75;;
42840;SDS011;28491;46.898;7.660;2022-07-17T11:56:32;4.40;;;2.77;;
42840;SDS011;28491;46.898;7.660;2022-07-17T11:58:58;3.58;;;2.42;;
42840;SDS011;28491;46.898;7.660;2022-07-17T12:01:27;3.83;;;2.60;;
42840;SDS011;28491;46.898;7.660;2022-07-17T12:03:58;4.28;;;2.60;;
42840;SDS011;28491;46.898;7.660;2022-07-17T12:06:25;5.78;;;2.70;;
42840;SDS011;28491;46.898;7.660;2022-07-17T12:08:52;4.20;;;2.42;;
42840;SDS011;28491;46.898;7.660;2022-07-17T12:11:18;5.70;;;2.65;;
42840;SDS011;28491;46.898;7.660;2022-07-17T12:13:45;5.65;;;2.58;;
42840;SDS011;28491;46.898;7.660;2022-07-17T12:24:20;3.63;;;2.58;;
42840;SDS011;28491;46.898;7.660;2022-07-17T12:26:47;4.22;;;2.38;;
42840;SDS011;28491;46.898;7.660;2022-07-17T12:29:13;4.93;;;2.80;;
42840;SDS011;28491;46.898;7.660;2022-07-17T12:31:38;3.35;;;2.40;;
42840;SDS011;28491;46.898;7.660;2022-07-17T12:34:04;5.10;;;2.70;;
42840;SDS011;28491;46.898;7.660;2022-07-17T12:36:30;6.88;;;2.78;;
42840;SDS011;28491;46.898;7.660;2022-07-17T12:38:56;3.65;;;2.40;;
42840;SDS011;28491;46.898;7.660;2022-07-17T12:41:22;3.20;;;2.28;;
42840;SDS011;28491;46.898;7.660;2022-07-17T12:43:48;3.20;;;2.40;;
42840;SDS011;28491;46.898;7.660;2022-07-17T12:46:13;6.07;;;2.53;;
42840;SDS011;28491;46.898;7.660;2022-07-17T12:48:39;3.95;;;2.58;;
42840;SDS011;28491;46.898;7.660;2022-07-17T12:51:07;5.22;;;2.40;;
42840;SDS011;28491;46.898;7.660;2022-07-17T12:53:33;2.80;;;2.33;;
42840;SDS011;28491;46.898;7.660;2022-07-17T12:56:00;4.80;;;2.45;;
42840;SDS011;28491;46.898;7.660;2022-07-17T12:58:26;3.85;;;2.40;;
42840;SDS011;28491;46.898;7.660;2022-07-17T13:00:51;6.97;;;2.55;;
42840;SDS011;28491;46.898;7.660;2022-07-17T13:03:17;5.80;;;2.58;;
42840;SDS011;28491;46.898;7.660;2022-07-17T13:05:42;6.00;;;2.88;;
42840;SDS011;28491;46.898;7.660;2022-07-17T13:08:08;3.92;;;2.90;;
42840;SDS011;28491;46.898;7.660;2022-07-17T13:10:34;3.58;;;2.20;;
42840;SDS011;28491;46.898;7.660;2022-07-17T13:13:00;4.32;;;2.42;;
42840;SDS011;28491;46.898;7.660;2022-07-17T13:15:26;5.68;;;2.95;;
42840;SDS011;28491;46.898;7.660;2022-07-17T13:17:51;4.38;;;2.92;;
42840;SDS011;28491;46.898;7.660;2022-07-17T13:20:17;5.70;;;2.95;;
42840;SDS011;28491;46.898;7.660;2022-07-17T13:22:42;3.83;;;2.67;;
42840;SDS011;28491;46.898;7.660;2022-07-17T13:25:08;4.07;;;3.03;;
42840;SDS011;28491;46.898;7.660;2022-07-17T13:27:34;3.65;;;2.50;;
42840;SDS011;28491;46.898;7.660;2022-07-17T13:29:59;4.80;;;2.38;;
42840;SDS011;28491;46.898;7.660;2022-07-17T13:32:25;4.10;;;2.33;;
42840;SDS011;28491;46.898;7.660;2022-07-17T13:34:51;4.78;;;2.58;;
42840;SDS011;28491;46.898;7.660;2022-07-17T13:37:16;6.70;;;2.58;;
42840;SDS011;28491;46.898;7.660;2022-07-17T13:39:42;6.03;;;2.17;;
42840;SDS011;28491;46.898;7.660;2022-07-17T13:42:07;6.35;;;2.42;;
42840;SDS011;28491;46.898;7.660;2022-07-17T13:44:33;6.28;;;2.47;;
42840;SDS011;28491;46.898;7.660;2022-07-17T13:46:59;4.05;;;2.45;;
42840;SDS011;28491;46.898;7.660;2022-07-17T13:49:24;4.03;;;2.22;;
42840;SDS011;28491;46.898;7.660;2022-07-17T13:51:50;3.85;;;2.40;;
42840;SDS011;28491;46.898;7.660;2022-07-17T13:54:16;3.90;;;2.55;;
42840;SDS011;28491;46.898;7.660;2022-07-17T13:56:42;3.10;;;2.60;;
42840;SDS011;28491;46.898;7.660;2022-07-17T13:59:07;4.82;;;2.72;;
42840;SDS011;28491;46.898;7.660;2022-07-17T14:01:33;4.18;;;2.75;;
42840;SDS011;28491;46.898;7.660;2022-07-17T14:04:00;4.05;;;2.28;;
42840;SDS011;28491;46.898;7.660;2022-07-17T14:06:26;4.50;;;3.45;;
42840;SDS011;28491;46.898;7.660;2022-07-17T14:08:52;5.03;;;2.60;;
42840;SDS011;28491;46.898;7.660;2022-07-17T14:11:18;4.13;;;2.17;;
42840;SDS011;28491;46.898;7.660;2022-07-17T14:13:43;6.80;;;2.95;;
42840;SDS011;28491;46.898;7.660;2022-07-17T14:16:09;4.47;;;2.40;;
42840;SDS011;28491;46.898;7.660;2022-07-17T14:18:35;4.70;;;2.53;;
42840;SDS011;28491;46.898;7.660;2022-07-17T14:21:21;3.72;;;2.30;;
42840;SDS011;28491;46.898;7.660;2022-07-17T14:23:46;3.10;;;2.00;;
42840;SDS011;28491;46.898;7.660;2022-07-17T14:26:12;6.13;;;2.47;;
42840;SDS011;28491;46.898;7.660;2022-07-17T14:28:37;4.00;;;2.33;;
42840;SDS011;28491;46.898;7.660;2022-07-17T14:31:03;3.05;;;2.08;;
42840;SDS011;28491;46.898;7.660;2022-07-17T14:33:28;4.45;;;2.10;;
42840;SDS011;28491;46.898;7.660;2022-07-17T14:35:54;3.40;;;2.40;;
42840;SDS011;28491;46.898;7.660;2022-07-17T14:38:20;4.40;;;2.35;;
42840;SDS011;28491;46.898;7.660;2022-07-17T14:40:46;4.00;;;2.10;;
42840;SDS011;28491;46.898;7.660;2022-07-17T14:43:12;5.43;;;2.33;;
42840;SDS011;28491;46.898;7.660;2022-07-17T14:45:37;3.65;;;2.20;;
42840;SDS011;28491;46.898;7.660;2022-07-17T14:48:03;3.95;;;2.30;;
42840;SDS011;28491;46.898;7.660;2022-07-17T14:50:28;4.35;;;2.28;;
42840;SDS011;28491;46.898;7.660;2022-07-17T14:52:54;5.18;;;2.63;;
42840;SDS011;28491;46.898;7.660;2022-07-17T14:55:20;5.38;;;2.40;;
42840;SDS011;28491;46.898;7.660;2022-07-17T14:57:45;4.03;;;2.60;;
42840;SDS011;28491;46.898;7.660;2022-07-17T15:00:11;3.60;;;2.00;;
42840;SDS011;28491;46.898;7.660;2022-07-17T15:02:37;6.05;;;2.70;;
42840;SDS011;28491;46.898;7.660;2022-07-17T15:05:02;2.83;;;2.13;;
42840;SDS011;28491;46.898;7.660;2022-07-17T15:07:28;5.05;;;2.03;;